createdAt,value
2023-05-05T00:03:44.353Z,75.40
2023-05-05T00:08:46.990Z,75.40
2023-05-05T00:13:49.388Z,75.40
2023-05-05T00:18:51.766Z,75.20
2023-05-05T00:23:54.484Z,74.90
2023-05-05T00:28:57.251Z,74.80
2023-05-05T00:33:59.472Z,75.10
2023-05-05T00:39:01.748Z,75.40
2023-05-05T00:44:04.186Z,75.20
2023-05-05T00:49:07.385Z,74.90
2023-05-05T00:54:10.050Z,75.70
2023-05-05T00:59:12.369Z,75.60
2023-05-05T01:04:14.732Z,74.60
2023-05-05T01:14:40.368Z,75.30
2023-05-05T01:20:08.107Z,75.50
2023-05-05T01:30:47.855Z,75.60
2023-05-05T01:35:56.140Z,75.40
2023-05-05T01:41:18.291Z,75.50
2023-05-05T01:46:23.805Z,75.30
2023-05-05T01:51:28.119Z,75.40
2023-05-05T01:56:32.388Z,74.80
2023-05-05T02:01:39.300Z,75.00
2023-05-05T02:06:44.493Z,75.10
2023-05-05T02:11:46.885Z,74.80
2023-05-05T02:16:50.654Z,75.00
2023-05-05T02:21:52.912Z,75.20
2023-05-05T02:26:57.882Z,75.00
2023-05-05T02:32:05.530Z,75.20
2023-05-05T02:37:12.682Z,75.00
2023-05-05T02:42:21.884Z,75.10
2023-05-05T02:47:36.665Z,74.90
2023-05-05T02:52:39.843Z,75.30
2023-05-05T02:58:05.137Z,75.10
2023-05-05T03:03:38.529Z,75.50
2023-05-05T03:14:17.025Z,75.30
2023-05-05T03:19:21.482Z,75.30
2023-05-05T03:24:28.899Z,75.40
2023-05-05T03:29:38.209Z,75.40
2023-05-05T03:34:44.816Z,75.30
2023-05-05T03:39:47.192Z,75.40
2023-05-05T03:44:52.251Z,75.40
2023-05-05T03:49:55.315Z,75.60
2023-05-05T03:54:57.941Z,75.50
2023-05-05T04:00:01.399Z,75.50
2023-05-05T04:05:05.332Z,75.20
2023-05-05T04:10:09.131Z,75.50
2023-05-05T04:15:11.805Z,75.50
2023-05-05T04:20:15.660Z,75.40
2023-05-05T04:25:18.104Z,75.50
2023-05-05T04:30:21.220Z,75.80
2023-05-05T04:35:23.626Z,75.80
2023-05-05T04:40:27.682Z,76.20
2023-05-05T04:45:31.751Z,75.90
2023-05-05T04:50:34.202Z,75.80
2023-05-05T04:55:36.512Z,75.10
2023-05-05T05:00:39.137Z,75.70
2023-05-05T05:05:42.820Z,76.20
2023-05-05T05:10:45.371Z,76.20
2023-05-05T05:15:47.848Z,76.30
2023-05-05T05:20:50.283Z,76.20
2023-05-05T05:25:53.461Z,76.10
2023-05-05T05:30:57.300Z,76.10
2023-05-05T05:35:59.790Z,75.40
2023-05-05T05:41:07.478Z,76.00
2023-05-05T05:46:12.647Z,77.00
2023-05-05T05:51:16.814Z,76.30
2023-05-05T05:56:19.417Z,76.10
2023-05-05T06:01:22.321Z,74.30
2023-05-05T06:06:25.534Z,75.90
2023-05-05T06:11:28.945Z,75.00
2023-05-05T06:16:31.409Z,75.20
2023-05-05T06:21:37.648Z,75.00
2023-05-05T06:26:40.191Z,74.60
2023-05-05T06:31:42.536Z,74.00
2023-05-05T06:36:45.548Z,75.00
2023-05-05T06:41:49.152Z,73.80
2023-05-05T06:46:51.871Z,73.50
2023-05-05T06:51:54.196Z,72.20
2023-05-05T06:56:59.328Z,74.70
2023-05-05T07:02:02.088Z,70.90
2023-05-05T07:07:04.310Z,71.80
2023-05-05T07:12:07.072Z,73.60
2023-05-05T07:17:11.158Z,73.30
2023-05-05T07:22:13.349Z,73.20
2023-05-05T07:27:15.735Z,72.90
2023-05-05T07:32:17.977Z,70.60
2023-05-05T07:37:20.260Z,70.90
2023-05-05T07:42:22.525Z,71.10
2023-05-05T07:47:24.813Z,73.10
2023-05-05T07:52:43.556Z,73.30
2023-05-05T07:57:47.781Z,73.00
2023-05-05T08:02:50.881Z,70.10
2023-05-05T08:07:53.211Z,69.50
2023-05-05T08:12:55.827Z,68.40
2023-05-05T08:17:58.144Z,69.90
2023-05-05T08:23:00.398Z,70.50
2023-05-05T08:28:02.767Z,69.00
2023-05-05T08:33:05.080Z,69.20
2023-05-05T08:38:07.364Z,69.20
2023-05-05T08:43:09.764Z,69.20
2023-05-05T08:48:12.824Z,69.20
2023-05-05T08:53:30.205Z,69.20
2023-05-05T08:58:33.056Z,70.20
2023-05-05T09:03:37.121Z,70.10
2023-05-05T09:08:39.812Z,67.30
2023-05-05T09:13:43.595Z,68.20
2023-05-05T09:18:45.906Z,67.80
2023-05-05T09:29:22.778Z,67.10
2023-05-05T09:34:25.022Z,67.60
2023-05-05T09:39:27.366Z,64.80
2023-05-05T09:44:35.186Z,66.00
2023-05-05T09:49:38.584Z,66.20
2023-05-05T09:54:41.430Z,67.70
2023-05-05T09:59:56.596Z,67.70
2023-05-05T10:05:16.372Z,68.20
2023-05-05T10:10:19.345Z,68.90
2023-05-05T10:15:22.330Z,68.40
2023-05-05T10:20:26.398Z,67.50
2023-05-05T10:25:31.579Z,66.90
2023-05-05T10:30:39.820Z,67.40
2023-05-05T10:35:44.856Z,67.90
2023-05-05T10:40:48.836Z,69.00
2023-05-05T10:45:51.926Z,68.80
2023-05-05T10:51:05.720Z,68.30
2023-05-05T10:56:19.821Z,68.50
2023-05-05T11:06:39.109Z,68.50
2023-05-05T11:12:02.012Z,68.30
2023-05-05T11:17:04.241Z,68.10
2023-05-05T11:22:06.456Z,68.30
2023-05-05T11:27:09.821Z,67.20
2023-05-05T11:32:13.799Z,68.60
2023-05-05T11:37:16.827Z,68.10
2023-05-05T11:42:24.875Z,67.70
2023-05-05T11:47:29.294Z,67.90
2023-05-05T11:52:31.658Z,67.50
2023-05-05T11:57:33.877Z,67.20
2023-05-05T12:02:36.690Z,67.70
2023-05-05T12:07:39.040Z,66.50
2023-05-05T12:12:42.326Z,66.50
2023-05-05T12:17:46.998Z,66.60
2023-05-05T12:22:49.234Z,66.80
2023-05-05T12:27:53.430Z,67.50
2023-05-05T12:33:05.117Z,67.30
2023-05-05T12:38:07.459Z,66.30
2023-05-05T12:43:09.750Z,65.30
2023-05-05T12:48:27.632Z,65.20
2023-05-05T12:53:29.785Z,65.10
2023-05-05T12:58:49.359Z,65.00
2023-05-05T13:14:36.346Z,65.60
2023-05-05T13:19:45.998Z,65.40
2023-05-05T13:24:52.469Z,65.70
2023-05-05T13:29:55.211Z,64.10
2023-05-05T13:34:58.098Z,64.30
2023-05-05T13:40:00.498Z,65.20
2023-05-05T13:45:02.656Z,65.80
2023-05-05T13:50:05.368Z,65.40
2023-05-05T13:55:08.384Z,64.60
2023-05-05T14:00:11.744Z,64.10
2023-05-05T14:05:14.726Z,64.10
2023-05-05T14:10:17.032Z,63.60
2023-05-05T14:15:19.352Z,64.70
2023-05-05T14:20:21.692Z,64.80
2023-05-05T14:25:25.262Z,64.40
2023-05-05T14:30:27.567Z,65.00
2023-05-05T14:35:31.259Z,66.20
2023-05-05T14:40:33.460Z,64.70
2023-05-05T14:45:35.780Z,62.70
2023-05-05T14:50:39.990Z,62.50
2023-05-05T14:55:42.299Z,62.80
2023-05-05T15:00:45.104Z,61.60
2023-05-05T15:05:47.335Z,62.50
2023-05-05T15:10:49.598Z,62.70
2023-05-05T15:15:51.993Z,63.60
2023-05-05T15:20:54.222Z,62.80
2023-05-05T15:25:56.503Z,63.20
2023-05-05T15:31:02.194Z,63.50
2023-05-05T15:36:04.626Z,64.10
2023-05-05T15:41:07.190Z,63.30
2023-05-05T15:46:09.377Z,63.80
2023-05-05T15:51:12.763Z,63.20
2023-05-05T15:56:14.932Z,63.40
2023-05-05T16:01:17.134Z,63.10
2023-05-05T16:06:19.348Z,63.60
2023-05-05T16:11:22.514Z,63.50
2023-05-05T16:16:24.824Z,63.90
2023-05-05T16:21:27.654Z,63.40
2023-05-05T16:26:29.901Z,63.50
2023-05-05T16:31:34.048Z,63.00
2023-05-05T16:36:36.376Z,63.00
2023-05-05T16:41:38.620Z,62.90
2023-05-05T16:46:40.994Z,62.30
2023-05-05T16:51:43.256Z,61.90
2023-05-05T16:56:45.482Z,62.30
2023-05-05T17:01:47.767Z,62.30
2023-05-05T17:06:50.093Z,62.20
2023-05-05T17:11:52.325Z,62.10
2023-05-05T17:16:54.586Z,61.90
2023-05-05T17:21:56.843Z,61.60
2023-05-05T17:26:59.653Z,61.70
2023-05-05T17:32:02.113Z,61.60
2023-05-05T17:37:04.831Z,61.50
2023-05-05T17:42:07.057Z,61.30
2023-05-05T17:47:10.544Z,61.70
2023-05-05T17:52:12.729Z,61.30
2023-05-05T17:57:20.931Z,61.00
2023-05-05T18:02:24.254Z,61.50
2023-05-05T18:07:27.684Z,61.50
2023-05-05T18:12:29.947Z,61.30
2023-05-05T18:17:32.184Z,61.40
2023-05-05T18:22:34.741Z,61.00
2023-05-05T18:27:37.419Z,61.00
2023-05-05T18:32:39.680Z,61.00
2023-05-05T18:37:42.329Z,61.10
2023-05-05T18:42:44.588Z,61.30
2023-05-05T18:47:46.773Z,61.20
2023-05-05T18:52:49.050Z,61.00
2023-05-05T18:57:51.304Z,60.40
2023-05-05T19:02:54.330Z,60.80
2023-05-05T19:07:56.525Z,60.90
2023-05-05T19:12:59.176Z,60.90
2023-05-05T19:18:01.820Z,60.50
2023-05-05T19:23:05.191Z,60.60
2023-05-05T19:28:07.508Z,60.50
2023-05-05T19:33:09.751Z,60.40
2023-05-05T19:38:12.387Z,60.40
2023-05-05T19:43:15.088Z,60.00
2023-05-05T19:48:17.275Z,59.80
2023-05-05T19:53:19.532Z,60.50
2023-05-05T19:58:22.004Z,59.90
2023-05-05T20:03:24.364Z,59.90
2023-05-05T20:08:26.729Z,59.60
2023-05-05T20:13:29.051Z,59.60
2023-05-05T20:18:31.376Z,59.70
2023-05-05T20:23:33.783Z,60.00
2023-05-05T20:28:36.892Z,59.30
2023-05-05T20:33:39.099Z,59.30
2023-05-05T20:38:41.272Z,59.30
2023-05-05T20:43:43.567Z,59.40
2023-05-05T20:48:45.921Z,59.30
2023-05-05T20:53:48.298Z,59.20
2023-05-05T20:58:50.487Z,59.20
2023-05-05T21:03:52.998Z,59.10
2023-05-05T21:08:55.154Z,59.10
2023-05-05T21:13:57.384Z,59.30
2023-05-05T21:18:59.521Z,59.00
2023-05-05T21:24:01.847Z,59.10
2023-05-05T21:29:04.073Z,59.00
2023-05-05T21:34:06.256Z,59.00
2023-05-05T21:39:08.509Z,58.90
2023-05-05T21:44:10.670Z,59.00
2023-05-05T21:49:14.156Z,58.70
2023-05-05T21:54:16.526Z,58.90
2023-05-05T21:59:18.752Z,58.90
2023-05-05T22:04:21.332Z,58.90
2023-05-05T22:09:23.560Z,58.80
2023-05-05T22:14:25.817Z,58.60
2023-05-05T22:19:28.111Z,58.70
2023-05-05T22:24:30.731Z,58.60
2023-05-05T22:29:33.350Z,58.40
2023-05-05T22:34:36.598Z,58.40
2023-05-05T22:39:38.807Z,58.60
2023-05-05T22:44:41.042Z,59.20
2023-05-05T22:49:43.275Z,58.80
2023-05-05T22:54:45.590Z,59.10
2023-05-05T22:59:47.986Z,59.10
2023-05-05T23:04:51.177Z,59.10
2023-05-05T23:09:53.507Z,59.10
2023-05-05T23:14:55.916Z,59.10
2023-05-05T23:19:58.135Z,59.10
2023-05-05T23:25:00.279Z,58.70
2023-05-05T23:30:02.475Z,58.70
2023-05-05T23:35:05.167Z,58.60
2023-05-05T23:40:08.024Z,58.60
2023-05-05T23:45:11.335Z,58.50
2023-05-05T23:50:13.797Z,58.60
2023-05-05T23:55:15.964Z,58.70
